San Jose Del Cabo, Mexico

8:08 PM MDT on August 31, 2015 (GMT -0600)
El Zacatal | | Change Station
CLOSE
Current Station
Personal Weather Station
Location: San Jose del Cabo, BAJA CALIFORNIA SUR
Elevation: 128 ft
Nearby Weather Stations

Elev 128 ft 23.10 °N, 109.71 °W | Updated 11 minutes ago

Scattered Clouds
Scattered Clouds
78.7 °F
Feels Like 82 °F
N
5.0
Wind Variable Wind from NNE
Gusts 9.0 mph

Today
High -- | Low -- °F
--% Chance of Precip.
Yesterday
High -- | Low -- °F
Precip. -- in
7:00 AM 7:37 PM
Waning Gibbous, 92% visible
Pressure 29.88 in
Visibility 8.0 miles
Clouds Scattered Clouds 12000 ft
Scattered Clouds 25000 ft
Heat Index 82 °F
Dew Point 74 °F
Humidity 85%
Rainfall 0.13 in
Snow Depth Not available.
UV 0 out of 12
Pollen Not available.
Air Quality Not available.
Flu Activity Not available.
METAR MMSL 010148Z 10003KT 8SM SCT120 SCT250 28/23 A2988 RMK 8/038 AS
Pressure 29.88 in
Visibility 8.0 miles
Clouds Scattered Clouds 12000 ft
Scattered Clouds 25000 ft
Heat Index 82 °F
Dew Point 74 °F
Humidity 85%
Rainfall 0.13 in
Snow Depth Not available.
UV 0 out of 12
Pollen Not available.
Air Quality Not available.
Flu Activity Not available.
METAR MMSL 010148Z 10003KT 8SM SCT120 SCT250 28/23 A2988 RMK 8/038 AS

10-Day Weather Forecast

×

Almanac

Astronomy

Aug. 31, 2015 Rise Set
Actual Time
Civil Twilight
Nautical Twilight
Astronomical Twilight
Moon
Length of Visible Light
Length of Day
Tomorrow will be .
, % of the Moon is Illuminated

Today's Extremes

Country Highs Country Lows

Community

WunderPhotos

Upload Photos

1,851,441 photos uploaded!

WunderBlogs® & News

Nearby

Air Quality

  Air Quality AQ Index Pollutant
Not available.

Snow Depth

Station Depth Elevation

Earthquake Activity

City Distance Mag. Time & Date
Minimum magnitude displayed is 2.5.

Coastal Water Temperatures

Place Temperature

Stations

Nearby Weather Stations

Station Location Temp. Windchill Dew Point Humidity Wind Precip. Elev Updated Type